Flight Track Log - Related Links

Times and Time Zones

All times are in EDT time to prevent confusion due to time zone crossing. See the N444UA flight status page for this flight to view local times or setup timezone preferences in your user account.

Time Position Orientation Groundspeed Altitude Reporting Facility
EDT Latitude Longitude Course Direction KTS MPH feet Rate Location/Type
Tue 08:25:51 AM 30.0008 -90.2483 North 158 182 500  Level Houston Center
Tue 08:30:27 AM 30.2928 -90.2347 313° West 274 315 10,500 2,113 Climbing Houston Center
Tue 08:31:26 AM 30.3606 -90.3181 312° West 303 349 12,300 2,200 Climbing Houston Center
Tue 08:32:27 AM 30.4303 -90.4086 309° West 341 392 14,900 2,300 Climbing Houston Center
Tue 08:33:26 AM 30.4958 -90.5042 309° West 370 426 16,900 1,916 Climbing Houston Center
Tue 08:34:26 AM 30.5633 -90.6022 310° West 383 441 18,700 1,884 Climbing Houston Center
Tue 08:35:27 AM 30.6331 -90.6981 310° West 389 448 20,700 1,650 Climbing Houston Center
Tue 08:36:26 AM 30.7047 -90.7964 308° West 394 453 22,000 1,450 Climbing Houston Center
Tue 08:37:27 AM 30.7742 -90.8997 308° West 394 453 23,600 1,350 Climbing Houston Center
Tue 08:38:26 AM 30.8456 -91.0056 310° West 405 466 24,700 1,140 Climbing Houston Center
Tue 08:42:27 AM 31.1622 -91.4525 311° West 438 504 29,300 1,033 Climbing Houston Center
Tue 08:47:26 AM 31.5500 -91.9800 311° West 421 484 34,000 456 Climbing Houston Center
Tue 08:52:45 AM 31.9561 -92.5386 310° West 430 495 34,000  Level Fort Worth Center
Tue 08:53:45 AM 32.0314 -92.6450 310° West 430 495 34,000  Level Fort Worth Center
Tue 08:54:45 AM 32.1083 -92.7536 311° West 430 495 34,000  Level Fort Worth Center
Tue 08:55:45 AM 32.1875 -92.8625 309° West 430 495 34,000  Level Fort Worth Center
Tue 08:56:45 AM 32.2625 -92.9717 311° West 430 495 34,000  Level Fort Worth Center
Tue 08:57:45 AM 32.3258 -93.0572 311° West 430 495 34,000  Level Fort Worth Center
Tue 08:58:45 AM 32.4158 -93.1808 309° West 425 489 34,000  Level Fort Worth Center
Tue 08:59:45 AM 32.4903 -93.2906 310° West 425 489 34,000  Level Fort Worth Center
Tue 09:00:45 AM 32.5517 -93.3764 310° West 425 489 34,000  Level Fort Worth Center
Tue 09:01:45 AM 32.6433 -93.5081 309° West 430 495 34,000 400 Level Fort Worth Center
Tue 09:02:45 AM 32.7197 -93.6183 310° West 430 495 34,800 1,150 Climbing Fort Worth Center
Tue 09:03:45 AM 32.7917 -93.7192 309° West 424 488 36,300 1,100 Climbing Fort Worth Center
Tue 09:04:45 AM 32.8614 -93.8225 309° West 413 475 37,000 500 Climbing Fort Worth Center
Tue 09:05:57 AM 32.9311 -93.9236 309° West 407 468 37,400 455 Climbing Fort Worth Center
Tue 09:06:57 AM 33.0139 -94.0467 309° West 407 468 38,000 300 Climbing Fort Worth Center
Tue 09:07:57 AM 33.0703 -94.1289 309° West 407 468 38,000  Level Fort Worth Center
Tue 09:08:57 AM 33.1483 -94.2425 309° West 407 468 38,000  Level Fort Worth Center
Tue 09:09:57 AM 33.2197 -94.3469 309° West 407 468 38,000  Level Fort Worth Center
Tue 09:11:57 AM 33.3647 -94.5581 309° West 407 468 38,000  Level Fort Worth Center
Tue 09:12:57 AM 33.4381 -94.6653 309° West 407 468 38,000 -50 Level Fort Worth Center
Tue 09:13:57 AM 33.5092 -94.7703 310° West 412 474 37,900 -50 Descending Fort Worth Center
Tue 09:14:57 AM 33.5822 -94.8753 308° West 412 474 37,900 50 Level Fort Worth Center
Tue 09:15:57 AM 33.6533 -94.9831 309° West 412 474 38,000 50 Climbing Fort Worth Center
Tue 09:16:57 AM 33.7242 -95.0883 309° West 412 474 38,000  Level Fort Worth Center
Tue 09:17:57 AM 33.7947 -95.1939 310° West 412 474 38,000 -50 Level Fort Worth Center
Tue 09:18:57 AM 33.8656 -95.2972 307° West 412 474 37,900 -50 Descending Fort Worth Center
Tue 09:19:57 AM 33.9319 -95.4033 310° West 412 474 37,900 50 Level Fort Worth Center
Tue 09:20:57 AM 34.0044 -95.5069 309° West 412 474 38,000 50 Climbing Fort Worth Center
Tue 09:21:57 AM 34.0814 -95.6206 306° West 411 473 38,000  Level Fort Worth Center
Tue 09:22:57 AM 34.1475 -95.7322 310° West 406 467 38,000  Level Fort Worth Center
Tue 09:23:57 AM 34.2178 -95.8336 307° West 406 467 38,000  Level Fort Worth Center
Tue 09:24:57 AM 34.2772 -95.9306 309° West 406 467 38,000  Level Fort Worth Center
Tue 09:25:57 AM 34.3472 -96.0350 310° West 406 467 38,000  Level Fort Worth Center
Tue 09:26:57 AM 34.4172 -96.1372 308° West 401 461 38,000 -50 Level Fort Worth Center
Tue 09:27:57 AM 34.4850 -96.2419 306° West 401 461 37,900  Descending Fort Worth Center
Tue 09:28:57 AM 34.5486 -96.3469 310° West 396 456 38,000 50 Climbing Fort Worth Center
Tue 09:29:57 AM 34.6183 -96.4497 307° West 396 456 38,000  Level Fort Worth Center
Tue 09:30:57 AM 34.6775 -96.5450 308° West 396 456 38,000  Level Fort Worth Center
Tue 09:31:57 AM 34.7594 -96.6706 308° West 391 450 38,000  Level Fort Worth Center
Tue 09:32:57 AM 34.8269 -96.7761 308° West 391 450 38,000  Level Fort Worth Center
Tue 09:33:57 AM 34.8942 -96.8794 309° West 391 450 38,000 -50 Level Fort Worth Center
Tue 09:34:57 AM 34.9633 -96.9853 307° West 391 450 37,900  Descending Fort Worth Center
Tue 09:35:57 AM 35.0303 -97.0942 307° West 391 450 38,000 50 Climbing Fort Worth Center
Tue 09:36:57 AM 35.0889 -97.1903 308° West 391 450 38,000  Level Fort Worth Center
Tue 09:37:57 AM 35.1558 -97.2967 310° West 391 450 38,000  Level Fort Worth Center
Tue 09:38:57 AM 35.2311 -97.4058 304° West 403 464 38,000  Level Fort Worth Center
Tue 09:39:57 AM 35.2978 -97.5281 308° West 403 464 38,000 -50 Level Fort Worth Center
Tue 09:40:57 AM 35.3686 -97.6375 303° West 403 464 37,900  Descending Fort Worth Center
Tue 09:41:57 AM 35.4267 -97.7472 304° West 403 464 38,000 50 Climbing Fort Worth Center
Tue 09:42:57 AM 35.4867 -97.8547 303° West 395 455 38,000  Level Fort Worth Center
Tue 09:43:57 AM 35.5447 -97.9647 303° West 395 455 38,000  Level Fort Worth Center
Tue 09:46:11 AM 35.6733 -98.2133 302° West 377 434 38,000  Level Kansas City Center
Tue 09:47:11 AM 35.7244 -98.3131 303° West 377 434 38,000  Level Kansas City Center
Tue 09:48:11 AM 35.7814 -98.4208 302° West 377 434 38,000  Level Kansas City Center
Tue 09:49:11 AM 35.8403 -98.5364 302° West 387 445 38,000  Level Kansas City Center
Tue 09:50:11 AM 35.8969 -98.6494 303° West 387 445 38,000  Level Kansas City Center
Tue 09:51:11 AM 35.9556 -98.7606 304° West 387 445 38,000  Level Kansas City Center
Tue 09:59:11 AM 36.4408 -99.6753 308° West 415 478 38,000  Level Kansas City Center
Tue 10:00:11 AM 36.5111 -99.7883 305° West 420 483 38,000  Level Kansas City Center
Tue 10:01:11 AM 36.5789 -99.9069 307° West 420 483 38,000  Level Kansas City Center
Tue 10:02:11 AM 36.6486 -100.0231 307° West 425 489 38,000  Level Kansas City Center
Tue 10:03:11 AM 36.7203 -100.1397 307° West 425 489 38,000  Level Kansas City Center
Tue 10:04:11 AM 36.7939 -100.2617 306° West 419 482 38,000  Level Kansas City Center
Tue 10:05:11 AM 36.8631 -100.3786 307° West 419 482 38,000 -50 Level Kansas City Center
Tue 10:06:11 AM 36.9247 -100.4819 307° West 419 482 37,900  Descending Kansas City Center
Tue 10:07:11 AM 36.9942 -100.5967 306° West 419 482 38,000 50 Climbing Kansas City Center
Tue 10:08:11 AM 37.0669 -100.7222 307° West 419 482 38,000  Level Kansas City Center
Tue 10:09:11 AM 37.1339 -100.8344 307° West 414 476 38,000  Level Kansas City Center
Tue 10:10:11 AM 37.1972 -100.9389 307° West 414 476 38,000 -50 Level Kansas City Center
Tue 10:11:11 AM 37.2661 -101.0544 306° West 414 476 37,900  Descending Kansas City Center
Tue 10:12:11 AM 37.3383 -101.1808 307° West 414 476 38,000 50 Climbing Kansas City Center
Tue 10:13:11 AM 37.4050 -101.2939 305° West 414 476 38,000 -35 Level Kansas City Center
Tue 10:15:01 AM 37.5192 -101.4986 307° West 419 482 37,900 -35 Descending Denver Center
Tue 10:16:01 AM 37.5867 -101.6119 306° West 419 482 37,900 50 Level Denver Center
Tue 10:17:01 AM 37.6611 -101.7433 307° West 419 482 38,000 50 Climbing Denver Center
Tue 10:18:01 AM 37.7306 -101.8619 306° West 419 482 38,000  Level Denver Center
Tue 10:19:01 AM 37.8000 -101.9811 305° West 419 482 38,000  Level Denver Center
Tue 10:20:01 AM 37.8606 -102.0903 305° West 424 488 38,000  Level Denver Center
Tue 10:21:01 AM 37.9344 -102.2228 306° West 424 488 38,000 -200 Level Denver Center
Tue 10:22:01 AM 38.0033 -102.3425 305° West 424 488 37,600 -600 Descending Denver Center
Tue 10:23:01 AM 38.0703 -102.4625 307° West 424 488 36,800 -900 Descending Denver Center
Tue 10:24:01 AM 38.1322 -102.5672 305° West 416 479 35,800 -1,050 Descending Denver Center
Tue 10:25:01 AM 38.2078 -102.7031 312° West 423 487 34,700 -1,000 Descending Denver Center
Tue 10:26:01 AM 38.2864 -102.8153 309° West 423 487 33,800 -950 Descending Denver Center
Tue 10:27:01 AM 38.3589 -102.9308 312° West 430 495 32,800 -1,833 Descending Denver Center
Tue 10:29:01 AM 38.5158 -103.1564 308° West 435 501 28,300 -2,267 Descending Denver Center
Tue 10:30:01 AM 38.5836 -103.2675 310° West 416 479 26,000 -2,100 Descending Denver Center
Tue 10:31:01 AM 38.6531 -103.3733 311° West 396 456 24,100 -1,000 Descending Denver Center
Tue 10:32:01 AM 38.7206 -103.4742 310° West 389 448 24,000 -50 Descending Denver Center
Tue 10:33:01 AM 38.7833 -103.5700 314° West 389 448 24,000  Level Denver Center
Tue 10:34:01 AM 38.8653 -103.6786 319° Northwest 389 448 24,000 -50 Level Denver Center
Tue 10:35:01 AM 38.9467 -103.7689 320° Northwest 389 448 23,900 -1,050 Descending Denver Center
Tue 10:36:01 AM 39.0194 -103.8489 318° Northwest 382 440 21,900 -1,900 Descending Denver Center
Tue 10:37:01 AM 39.0944 -103.9369 317° Northwest 376 433 20,100 -2,050 Descending Denver Center
Tue 10:38:01 AM 39.1758 -104.0358 320° Northwest 365 420 17,800 -1,600 Descending Denver Center
Tue 10:39:01 AM 39.2483 -104.1136 319° Northwest 349 402 16,900 -750 Descending Denver Center
Tue 10:40:01 AM 39.3061 -104.1789 315° West 321 369 16,300 -700 Descending Denver Center
Tue 10:41:01 AM 39.3639 -104.2547 271° West 281 323 15,500 -950 Descending Denver Center
Tue 10:42:01 AM 39.3656 -104.3408 264° West 250 288 14,400 -1,200 Descending Denver Center
Tue 10:43:01 AM 39.3569 -104.4403 257° West 256 295 13,100 -700 Descending Denver Center
Tue 10:44:01 AM 39.3417 -104.5239 258° West 261 300 13,000 -400 Descending Denver Center
Tue 10:45:01 AM 39.3264 -104.6183 323° Northwest 255 293 12,300 -950 Descending Denver Center
Tue 10:46:01 AM 39.3772 -104.6681 North 212 244 11,100 -650 Descending Denver Center
Tue 10:47:01 AM 39.4503 -104.6661 359° North 242 278 11,000 -50 Descending Denver Center
Tue 10:48:01 AM 39.5192 -104.6669 360° North 250 288 11,000 -523 Level Denver Center
Tue 10:49:30 AM 39.6167 -104.6667 360° North 223 257 9,700 -966 Descending Denver TRACON
Tue 10:50:30 AM 39.6667 -104.6667 360° North 198 228 8,600 -1,100 Descending Denver TRACON

Login

Don't have an account? Register now (free) for customized features, flight alerts, and more!